createdAt,value
2016-06-27T00:00:05.226Z,98.3
2016-06-27T00:00:14.031Z,98.5
2016-06-27T00:00:24.025Z,98.5
2016-06-27T00:00:35.333Z,98.4
2016-06-27T00:00:45.245Z,98.6
2016-06-27T00:00:55.246Z,98.4
2016-06-27T00:01:05.254Z,98.5
2016-06-27T00:01:15.309Z,98.1
2016-06-27T00:01:25.275Z,98.3
2016-06-27T00:01:35.272Z,98.3
2016-06-27T00:01:45.266Z,98.5
2016-06-27T00:01:54.094Z,97.9
2016-06-27T00:02:04.103Z,98.1
2016-06-27T00:02:15.292Z,98.1
2016-06-27T00:02:25.310Z,98.3
2016-06-27T00:02:35.338Z,98.2
2016-06-27T00:02:45.343Z,98.1
2016-06-27T00:02:55.316Z,98.1
2016-06-27T00:03:05.319Z,98.1
2016-06-27T00:03:14.146Z,98
2016-06-27T00:03:24.152Z,98.1
2016-06-27T00:03:35.363Z,98.1
2016-06-27T00:03:44.150Z,98.3
2016-06-27T00:03:55.360Z,97.7
2016-06-27T00:04:05.357Z,97.9
2016-06-27T00:04:15.365Z,97.4
2016-06-27T00:04:25.369Z,97.8
2016-06-27T00:04:35.422Z,97.9
2016-06-27T00:04:45.398Z,97.8
2016-06-27T00:04:55.458Z,97.5
2016-06-27T00:05:05.407Z,98.3
2016-06-27T00:05:15.407Z,98.1
2016-06-27T00:05:25.425Z,98.4
2016-06-27T00:05:35.419Z,98.1
2016-06-27T00:05:45.464Z,97.9
2016-06-27T00:05:55.430Z,98.2
2016-06-27T00:06:05.434Z,98.4
2016-06-27T00:06:15.437Z,98.6
2016-06-27T00:06:25.462Z,98.7
2016-06-27T00:06:35.465Z,99.1
2016-06-27T00:06:45.707Z,99
2016-06-27T00:06:55.504Z,99
2016-06-27T00:07:05.471Z,99.1
2016-06-27T00:07:15.479Z,98.9
2016-06-27T00:07:25.470Z,99
2016-06-27T00:07:35.485Z,99.2
2016-06-27T00:07:45.585Z,99.1
2016-06-27T00:07:55.501Z,99.1
2016-06-27T00:08:05.529Z,99.2
2016-06-27T00:08:15.517Z,98.2
2016-06-27T00:08:25.589Z,98.7
2016-06-27T00:08:35.539Z,98.4
2016-06-27T00:08:44.343Z,99
2016-06-27T00:08:54.357Z,99.1
2016-06-27T00:09:05.612Z,99.1
2016-06-27T00:09:15.551Z,98.8
2016-06-27T00:09:25.571Z,99
2016-06-27T00:09:35.566Z,98.9
2016-06-27T00:09:45.609Z,98.9
2016-06-27T00:09:55.623Z,98.9
2016-06-27T00:10:05.582Z,98.9
2016-06-27T00:10:15.579Z,98.9
2016-06-27T00:10:24.408Z,98.9
2016-06-27T00:10:35.602Z,98.9
2016-06-27T00:10:45.608Z,99.2
2016-06-27T00:10:54.422Z,99.1
2016-06-27T00:11:04.462Z,98.5
2016-06-27T00:11:15.650Z,98.4
2016-06-27T00:11:25.654Z,98.5
2016-06-27T00:11:35.638Z,98.3
2016-06-27T00:11:45.659Z,98.7
2016-06-27T00:11:55.662Z,98.5
2016-06-27T00:12:05.677Z,98.5
2016-06-27T00:12:15.659Z,98.1
2016-06-27T00:12:24.467Z,98.5
2016-06-27T00:12:35.680Z,98.9
2016-06-27T00:12:45.686Z,98.5
2016-06-27T00:12:55.710Z,98.2
2016-06-27T00:13:05.694Z,98.6
2016-06-27T00:13:15.707Z,98.9
2016-06-27T00:13:25.715Z,98.7
2016-06-27T00:13:35.720Z,98.7
2016-06-27T00:13:45.729Z,98.6
2016-06-27T00:13:54.549Z,98.3
2016-06-27T00:14:05.745Z,98.5
2016-06-27T00:14:15.740Z,98.5
2016-06-27T00:14:24.555Z,98.4
2016-06-27T00:14:35.759Z,98.3
2016-06-27T00:14:45.759Z,98.4
2016-06-27T00:14:55.777Z,98.4
2016-06-27T00:15:05.765Z,98.5
2016-06-27T00:15:15.777Z,98.8
2016-06-27T00:15:25.798Z,98.4
2016-06-27T00:15:35.790Z,99
2016-06-27T00:15:45.789Z,98.8
2016-06-27T00:15:55.833Z,98.9
2016-06-27T00:16:05.810Z,99.1
2016-06-27T00:16:15.817Z,98.9
2016-06-27T00:16:25.808Z,99
2016-06-27T00:16:35.835Z,99
2016-06-27T00:16:45.831Z,98.8
2016-06-27T00:16:55.839Z,98.8
2016-06-27T00:17:05.852Z,98.9
2016-06-27T00:17:15.874Z,98.8
2016-06-27T00:17:25.869Z,99
2016-06-27T00:17:35.852Z,98.7
2016-06-27T00:17:45.867Z,99.1
2016-06-27T00:17:55.899Z,99
2016-06-27T00:18:04.709Z,99
2016-06-27T00:18:14.688Z,98.6
2016-06-27T00:18:25.899Z,99
2016-06-27T00:18:35.902Z,99.5
2016-06-27T00:18:45.944Z,99.5
2016-06-27T00:18:55.911Z,99.3
2016-06-27T00:19:05.920Z,99.5
2016-06-27T00:19:15.943Z,99.7
2016-06-27T00:19:24.729Z,98.9
2016-06-27T00:19:35.931Z,98.7
2016-06-27T00:19:44.751Z,98.6
2016-06-27T00:19:55.959Z,99
2016-06-27T00:20:05.947Z,99
2016-06-27T00:20:15.968Z,99
2016-06-27T00:20:25.991Z,98.7
2016-06-27T00:20:35.997Z,98.9
2016-06-27T00:20:45.978Z,98.9
2016-06-27T00:20:55.984Z,99
2016-06-27T00:21:05.979Z,99.2
2016-06-27T00:21:15.990Z,99
2016-06-27T00:21:26.005Z,99
2016-06-27T00:21:36.010Z,98.9
2016-06-27T00:21:44.862Z,99.1
2016-06-27T00:21:54.826Z,99
2016-06-27T00:22:06.041Z,99
2016-06-27T00:22:16.043Z,99
2016-06-27T00:22:26.056Z,99
2016-06-27T00:22:36.035Z,99
2016-06-27T00:22:46.060Z,99
2016-06-27T00:22:56.055Z,99
2016-06-27T00:23:06.064Z,98.8
2016-06-27T00:23:16.069Z,98.8
2016-06-27T00:23:26.080Z,99
2016-06-27T00:23:36.086Z,99.1
2016-06-27T00:23:46.095Z,99
2016-06-27T00:23:54.906Z,99
2016-06-27T00:24:06.122Z,99
2016-06-27T00:24:16.103Z,99
2016-06-27T00:24:26.113Z,98.7
2016-06-27T00:24:36.134Z,98.9
2016-06-27T00:24:46.141Z,98.8
2016-06-27T00:24:56.147Z,99
2016-06-27T00:25:06.135Z,99
2016-06-27T00:25:16.149Z,98.8
2016-06-27T00:25:26.154Z,99
2016-06-27T00:25:36.228Z,98.9
2016-06-27T00:25:46.169Z,99
2016-06-27T00:25:56.183Z,98.7
2016-06-27T00:26:04.985Z,98.8
2016-06-27T00:26:16.223Z,98.9
2016-06-27T00:26:26.205Z,98.9
2016-06-27T00:26:36.191Z,99
2016-06-27T00:26:46.203Z,99.6
2016-06-27T00:26:56.255Z,99.2
2016-06-27T00:27:06.211Z,99.3
2016-06-27T00:27:16.235Z,99.3
2016-06-27T00:27:26.219Z,99.5
2016-06-27T00:27:36.293Z,99.4
2016-06-27T00:27:45.041Z,99.1
2016-06-27T00:27:55.058Z,99.1
2016-06-27T00:28:06.255Z,99.5
2016-06-27T00:28:16.307Z,99.3
2016-06-27T00:28:26.271Z,99.2
2016-06-27T00:28:36.272Z,99.2
2016-06-27T00:28:46.284Z,99.5
2016-06-27T00:28:56.289Z,99.1
2016-06-27T00:29:06.290Z,99.2
2016-06-27T00:29:16.293Z,99.4
2016-06-27T00:29:25.142Z,99.4
2016-06-27T00:29:35.111Z,99.2
2016-06-27T00:29:46.319Z,99.1
2016-06-27T00:29:56.315Z,99.5
2016-06-27T00:30:05.149Z,99.4
2016-06-27T00:30:16.327Z,99.3
2016-06-27T00:30:26.335Z,99.4
2016-06-27T00:30:36.331Z,99.5
2016-06-27T00:30:46.349Z,99.2
2016-06-27T00:30:56.367Z,99.4
2016-06-27T00:31:06.357Z,99.5
2016-06-27T00:31:16.368Z,99.5
2016-06-27T00:31:26.374Z,99.7
2016-06-27T00:31:36.394Z,99.6
2016-06-27T00:31:45.216Z,98.9
2016-06-27T00:31:56.394Z,98.7
2016-06-27T00:32:06.402Z,98.7
2016-06-27T00:32:15.206Z,98.5
2016-06-27T00:32:26.411Z,98.7
2016-06-27T00:32:36.421Z,99
2016-06-27T00:32:46.436Z,99.7
2016-06-27T00:32:56.438Z,99.4
2016-06-27T00:33:06.427Z,99.7
2016-06-27T00:33:16.436Z,99
2016-06-27T00:33:26.483Z,99
2016-06-27T00:33:36.455Z,98.9
2016-06-27T00:33:46.487Z,98.7
2016-06-27T00:33:56.475Z,98.7
2016-06-27T00:34:06.487Z,98.6
2016-06-27T00:34:16.534Z,98.9
2016-06-27T00:34:26.484Z,99
2016-06-27T00:34:36.486Z,98.9
2016-06-27T00:34:46.505Z,98.9
2016-06-27T00:34:56.501Z,98.6
2016-06-27T00:35:06.521Z,99
2016-06-27T00:35:16.513Z,98.8
2016-06-27T00:35:25.363Z,99
2016-06-27T00:35:36.529Z,98.8
2016-06-27T00:35:46.538Z,98.8
2016-06-27T00:35:55.372Z,98.9
2016-06-27T00:36:06.542Z,99.1
2016-06-27T00:36:16.547Z,99
2016-06-27T00:36:26.563Z,99
2016-06-27T00:36:36.568Z,98.9
2016-06-27T00:36:46.563Z,99
2016-06-27T00:36:56.580Z,99.1
2016-06-27T00:37:06.578Z,99
2016-06-27T00:37:16.590Z,99.1
2016-06-27T00:37:26.599Z,99
2016-06-27T00:37:36.608Z,98.8
2016-06-27T00:37:46.611Z,98.8
2016-06-27T00:37:56.608Z,99
2016-06-27T00:38:05.423Z,99.1
2016-06-27T00:38:16.627Z,99
2016-06-27T00:38:26.637Z,98.9
2016-06-27T00:38:36.859Z,99.1
2016-06-27T00:38:46.673Z,99.1
2016-06-27T00:38:56.666Z,99
2016-06-27T00:39:05.467Z,99.1
2016-06-27T00:39:16.661Z,99
2016-06-27T00:39:26.659Z,99.2
2016-06-27T00:39:35.477Z,98.6
2016-06-27T00:39:46.677Z,98.6
2016-06-27T00:39:56.755Z,98.4
2016-06-27T00:40:06.692Z,98.4
2016-06-27T00:40:15.503Z,98.4
2016-06-27T00:40:26.711Z,98.4
2016-06-27T00:40:36.814Z,98.6
2016-06-27T00:40:46.721Z,99.1
2016-06-27T00:40:56.726Z,99.2
2016-06-27T00:41:06.734Z,99.2
2016-06-27T00:41:16.750Z,98.8
2016-06-27T00:41:26.746Z,99
2016-06-27T00:41:36.735Z,99.1
2016-06-27T00:41:45.560Z,98.9
2016-06-27T00:41:56.853Z,99
2016-06-27T00:42:06.770Z,99
2016-06-27T00:42:16.774Z,99
2016-06-27T00:42:26.798Z,98.9
2016-06-27T00:42:36.835Z,99.1
2016-06-27T00:42:46.793Z,99
2016-06-27T00:42:56.835Z,99.1
2016-06-27T00:43:06.805Z,98.8
2016-06-27T00:43:16.860Z,98.8
2016-06-27T00:43:26.845Z,99.1
2016-06-27T00:43:36.841Z,98.9
2016-06-27T00:43:45.642Z,99
2016-06-27T00:43:55.639Z,99
2016-06-27T00:44:06.843Z,99
2016-06-27T00:44:16.878Z,98.9
2016-06-27T00:44:26.857Z,99
2016-06-27T00:44:36.890Z,98.9
2016-06-27T00:44:46.880Z,99.1
2016-06-27T00:44:56.880Z,98.6
2016-06-27T00:45:06.890Z,99.6
2016-06-27T00:45:15.688Z,99.3
2016-06-27T00:45:26.902Z,99.5
2016-06-27T00:45:36.945Z,99.5
2016-06-27T00:45:46.905Z,99.3
2016-06-27T00:45:56.954Z,99.3
2016-06-27T00:46:06.916Z,99.4
2016-06-27T00:46:16.943Z,99.2
2016-06-27T00:46:26.940Z,98.9
2016-06-27T00:46:35.742Z,98.9
2016-06-27T00:46:46.955Z,98.9
2016-06-27T00:46:56.972Z,98.7
2016-06-27T00:47:06.968Z,99
2016-06-27T00:47:16.979Z,98.6
2016-06-27T00:47:26.971Z,98.7
2016-06-27T00:47:35.817Z,98.7
2016-06-27T00:47:46.981Z,98.5
2016-06-27T00:47:56.986Z,99.6
2016-06-27T00:48:06.993Z,99
2016-06-27T00:48:17.010Z,99.6
2016-06-27T00:48:27.003Z,98.9
2016-06-27T00:48:37.001Z,99
2016-06-27T00:48:47.026Z,98.8
2016-06-27T00:48:55.846Z,99
2016-06-27T00:49:07.038Z,98.9
2016-06-27T00:49:15.842Z,98.9
2016-06-27T00:49:27.043Z,98.8
2016-06-27T00:49:37.057Z,98.8
2016-06-27T00:49:47.062Z,99.5
2016-06-27T00:49:57.060Z,98.6
2016-06-27T00:50:07.061Z,99.5
2016-06-27T00:50:17.069Z,98.8
2016-06-27T00:50:27.153Z,98.6
2016-06-27T00:50:37.083Z,98.9
2016-06-27T00:50:47.095Z,99
2016-06-27T00:50:57.111Z,98.8
2016-06-27T00:51:07.112Z,98.9
2016-06-27T00:51:17.113Z,99
2016-06-27T00:51:25.922Z,98.7
2016-06-27T00:51:37.121Z,98.9
2016-06-27T00:51:47.182Z,98.7
2016-06-27T00:51:57.143Z,98.8
2016-06-27T00:52:07.141Z,98.7
2016-06-27T00:52:17.141Z,98.9
2016-06-27T00:52:27.167Z,98.8
2016-06-27T00:52:37.162Z,98.8
2016-06-27T00:52:47.281Z,98.6
2016-06-27T00:52:57.187Z,98.9
2016-06-27T00:53:07.180Z,99
2016-06-27T00:53:15.986Z,99
2016-06-27T00:53:27.271Z,98.9
2016-06-27T00:53:36.005Z,98.9
2016-06-27T00:53:47.212Z,98.6
2016-06-27T00:53:57.219Z,98.9
2016-06-27T00:54:07.224Z,98.8
2016-06-27T00:54:17.213Z,98.8
2016-06-27T00:54:27.227Z,99.2
2016-06-27T00:54:37.240Z,99
2016-06-27T00:54:47.279Z,98.8
2016-06-27T00:54:57.257Z,99
2016-06-27T00:55:07.278Z,98.9
2016-06-27T00:55:17.265Z,98.6
2016-06-27T00:55:27.278Z,99
2016-06-27T00:55:37.271Z,99
2016-06-27T00:55:47.292Z,99
2016-06-27T00:55:57.274Z,99.6
2016-06-27T00:56:07.366Z,98.9
2016-06-27T00:56:17.299Z,98.6
2016-06-27T00:56:27.297Z,99
2016-06-27T00:56:37.319Z,99.3
2016-06-27T00:56:47.328Z,99.3
2016-06-27T00:56:57.325Z,99.3
2016-06-27T00:57:06.142Z,99.5
2016-06-27T00:57:17.341Z,99.5
2016-06-27T00:57:27.339Z,99.6
2016-06-27T00:57:37.359Z,99.1
2016-06-27T00:57:47.361Z,99.4
2016-06-27T00:57:57.383Z,99.5
2016-06-27T00:58:06.168Z,99.2
2016-06-27T00:58:17.372Z,99.6
2016-06-27T00:58:27.382Z,99.5
2016-06-27T00:58:37.383Z,99.6
2016-06-27T00:58:47.392Z,99.2
2016-06-27T00:58:57.399Z,99.2
2016-06-27T00:59:06.202Z,99.6
2016-06-27T00:59:17.397Z,99.9
2016-06-27T00:59:27.414Z,100
2016-06-27T00:59:36.229Z,99.5
2016-06-27T00:59:46.245Z,99.8
2016-06-27T00:59:57.476Z,99.4
2016-06-27T01:00:07.436Z,99.5
2016-06-27T01:00:17.446Z,99.4
2016-06-27T01:00:27.450Z,99.4
2016-06-27T01:00:37.466Z,99.3
2016-06-27T01:00:46.279Z,99.6
2016-06-27T01:00:57.475Z,99.4
2016-06-27T01:01:07.483Z,99.3
2016-06-27T01:01:17.503Z,99.1
2016-06-27T01:01:26.288Z,99.6
2016-06-27T01:01:36.295Z,99.8
2016-06-27T01:01:47.529Z,99.4
2016-06-27T01:01:57.539Z,99.3
2016-06-27T01:02:07.507Z,99.7
2016-06-27T01:02:17.542Z,99.7
2016-06-27T01:02:27.546Z,99.4
2016-06-27T01:02:37.537Z,99.4
2016-06-27T01:02:47.548Z,99.1
2016-06-27T01:02:57.552Z,99
2016-06-27T01:03:07.553Z,99.3
2016-06-27T01:03:17.575Z,99.7
2016-06-27T01:03:27.563Z,99.5
2016-06-27T01:03:37.571Z,99.2
2016-06-27T01:03:46.382Z,99.3
2016-06-27T01:03:57.581Z,99.8
2016-06-27T01:04:07.594Z,99.7
2016-06-27T01:04:17.591Z,98.9
2016-06-27T01:04:27.602Z,98.7
2016-06-27T01:04:37.607Z,98.6
2016-06-27T01:04:47.846Z,98.6
2016-06-27T01:04:57.653Z,98.8
2016-06-27T01:05:07.642Z,98.8
2016-06-27T01:05:16.424Z,99.4
2016-06-27T01:05:26.462Z,99.2
2016-06-27T01:05:37.654Z,98.7
2016-06-27T01:05:47.652Z,99.5
2016-06-27T01:05:57.658Z,99.5
2016-06-27T01:06:07.672Z,98.9
2016-06-27T01:06:16.475Z,99
2016-06-27T01:06:27.999Z,98.8
2016-06-27T01:06:37.695Z,99
2016-06-27T01:06:47.683Z,98.9
2016-06-27T01:06:57.691Z,99
2016-06-27T01:07:07.719Z,98.8
2016-06-27T01:07:17.727Z,99
2016-06-27T01:07:27.747Z,99
2016-06-27T01:07:37.718Z,99.5
2016-06-27T01:07:47.742Z,99
2016-06-27T01:07:57.722Z,99
2016-06-27T01:08:07.751Z,98.8
2016-06-27T01:08:17.740Z,98.9
2016-06-27T01:08:27.787Z,98.9
2016-06-27T01:08:37.755Z,98.9
2016-06-27T01:08:47.763Z,99.7
2016-06-27T01:08:57.767Z,99.4
2016-06-27T01:09:07.808Z,99.1
2016-06-27T01:09:17.780Z,99.2
2016-06-27T01:09:26.588Z,99.8
2016-06-27T01:09:36.606Z,99.2
2016-06-27T01:09:47.809Z,99.7
2016-06-27T01:09:57.802Z,99.7
2016-06-27T01:10:07.816Z,99.6
2016-06-27T01:10:17.812Z,99.8
2016-06-27T01:10:27.831Z,99.7
2016-06-27T01:10:37.844Z,99.3
2016-06-27T01:10:47.838Z,99.4
2016-06-27T01:10:57.856Z,99.3
2016-06-27T01:11:07.839Z,99
2016-06-27T01:11:17.854Z,99.2
2016-06-27T01:11:27.861Z,99.4
2016-06-27T01:11:37.867Z,99.6
2016-06-27T01:11:47.882Z,99.2
2016-06-27T01:11:57.879Z,99.2
2016-06-27T01:12:07.877Z,99.5
2016-06-27T01:12:17.894Z,99.4
2016-06-27T01:12:27.911Z,99.5
2016-06-27T01:12:37.904Z,99.1
2016-06-27T01:12:47.899Z,99.2
2016-06-27T01:12:57.916Z,99.6
2016-06-27T01:13:07.921Z,99.6
2016-06-27T01:13:17.935Z,99.6
2016-06-27T01:13:27.931Z,100
2016-06-27T01:13:36.749Z,99.7
2016-06-27T01:13:47.997Z,99.7
2016-06-27T01:13:57.959Z,100
2016-06-27T01:14:07.953Z,99.6
2016-06-27T01:14:17.959Z,99.7
2016-06-27T01:14:27.963Z,99.4
2016-06-27T01:14:37.972Z,99.4
2016-06-27T01:14:47.986Z,99.4
2016-06-27T01:14:57.985Z,99.2
2016-06-27T01:15:06.798Z,99.1
2016-06-27T01:15:18.005Z,99.4
2016-06-27T01:15:28.011Z,99.5
2016-06-27T01:15:38.015Z,99.2
2016-06-27T01:15:48.027Z,99.4
2016-06-27T01:15:58.028Z,99.1
2016-06-27T01:16:08.040Z,99.3
2016-06-27T01:16:18.044Z,99.4
2016-06-27T01:16:28.045Z,99.1
2016-06-27T01:16:38.061Z,99.1
2016-06-27T01:16:48.088Z,99.5
2016-06-27T01:16:58.072Z,99.2
2016-06-27T01:17:08.063Z,99.8
2016-06-27T01:17:18.083Z,99.9
2016-06-27T01:17:26.889Z,99.9
2016-06-27T01:17:38.086Z,99.6
2016-06-27T01:17:48.082Z,99.4
2016-06-27T01:17:58.121Z,99.8
2016-06-27T01:18:08.099Z,99.9
2016-06-27T01:18:18.107Z,100
2016-06-27T01:18:28.112Z,100
2016-06-27T01:18:38.118Z,100
2016-06-27T01:18:48.144Z,100
2016-06-27T01:18:58.142Z,100
2016-06-27T01:19:08.200Z,100
2016-06-27T01:19:18.188Z,100
2016-06-27T01:19:28.156Z,100
2016-06-27T01:19:38.162Z,100
2016-06-27T01:19:48.178Z,100
2016-06-27T01:19:58.173Z,100
2016-06-27T01:20:06.980Z,100
2016-06-27T01:20:18.182Z,99.9
2016-06-27T01:20:28.187Z,100
2016-06-27T01:20:37.001Z,100
2016-06-27T01:20:48.215Z,100
2016-06-27T01:20:58.214Z,100
2016-06-27T01:21:08.281Z,100
2016-06-27T01:21:18.237Z,100
2016-06-27T01:21:28.239Z,100
2016-06-27T01:21:38.235Z,100
2016-06-27T01:21:48.260Z,99.7
2016-06-27T01:21:58.276Z,99.9
2016-06-27T01:22:08.253Z,100
2016-06-27T01:22:18.264Z,100
2016-06-27T01:22:28.288Z,99.9
2016-06-27T01:22:37.082Z,100
2016-06-27T01:22:48.274Z,100
2016-06-27T01:22:58.292Z,100
2016-06-27T01:23:07.093Z,100
2016-06-27T01:23:18.298Z,100
2016-06-27T01:23:28.301Z,100
2016-06-27T01:23:38.299Z,100
2016-06-27T01:23:47.123Z,100
2016-06-27T01:23:58.328Z,100
2016-06-27T01:24:08.333Z,100
2016-06-27T01:24:18.334Z,100
2016-06-27T01:24:28.343Z,100
2016-06-27T01:24:38.347Z,100
2016-06-27T01:24:47.158Z,100
2016-06-27T01:24:57.176Z,100
2016-06-27T01:25:08.359Z,100
2016-06-27T01:25:18.382Z,100
2016-06-27T01:25:28.386Z,100
2016-06-27T01:25:38.384Z,100
2016-06-27T01:25:48.391Z,100
2016-06-27T01:25:58.396Z,100
2016-06-27T01:26:08.410Z,100
2016-06-27T01:26:18.438Z,100
2016-06-27T01:26:28.433Z,100
2016-06-27T01:26:38.440Z,100
2016-06-27T01:26:48.436Z,100
2016-06-27T01:26:58.479Z,100
2016-06-27T01:27:08.444Z,100
2016-06-27T01:27:17.263Z,100
2016-06-27T01:27:28.439Z,100
2016-06-27T01:27:38.458Z,100
2016-06-27T01:27:48.459Z,100
2016-06-27T01:27:58.468Z,100
2016-06-27T01:28:08.480Z,100
2016-06-27T01:28:18.531Z,100
2016-06-27T01:28:28.518Z,100
2016-06-27T01:28:38.546Z,100
2016-06-27T01:28:48.498Z,100
2016-06-27T01:28:58.511Z,100
2016-06-27T01:29:07.314Z,100
2016-06-27T01:29:18.530Z,100
2016-06-27T01:29:28.526Z,100
2016-06-27T01:29:38.554Z,100
2016-06-27T01:29:48.580Z,100
2016-06-27T01:29:58.538Z,100
2016-06-27T01:30:08.543Z,100
2016-06-27T01:30:18.585Z,100
2016-06-27T01:30:28.556Z,100
2016-06-27T01:30:37.382Z,100
2016-06-27T01:30:48.580Z,100
2016-06-27T01:30:58.577Z,100
2016-06-27T01:31:08.605Z,100
2016-06-27T01:31:18.585Z,100
2016-06-27T01:31:28.585Z,100
2016-06-27T01:31:38.602Z,100
2016-06-27T01:31:48.642Z,100
2016-06-27T01:31:58.626Z,100
2016-06-27T01:32:07.430Z,100
2016-06-27T01:32:18.626Z,100
2016-06-27T01:32:27.452Z,100
2016-06-27T01:32:38.654Z,100
2016-06-27T01:32:48.647Z,100
2016-06-27T01:32:57.454Z,100
2016-06-27T01:33:08.672Z,100
2016-06-27T01:33:18.677Z,100
2016-06-27T01:33:28.678Z,100
2016-06-27T01:33:38.696Z,100
2016-06-27T01:33:48.687Z,100
2016-06-27T01:33:57.518Z,100
2016-06-27T01:34:08.719Z,100
2016-06-27T01:34:18.710Z,100
2016-06-27T01:34:28.709Z,100
2016-06-27T01:34:38.727Z,100
2016-06-27T01:34:48.720Z,100
2016-06-27T01:34:58.718Z,100
2016-06-27T01:35:08.781Z,100
2016-06-27T01:35:18.733Z,100
2016-06-27T01:35:28.775Z,100
2016-06-27T01:35:37.563Z,100
2016-06-27T01:35:48.775Z,100
2016-06-27T01:35:58.774Z,100
2016-06-27T01:36:08.775Z,100
2016-06-27T01:36:18.777Z,100
2016-06-27T01:36:28.797Z,100
2016-06-27T01:36:38.815Z,100
2016-06-27T01:36:48.879Z,100
2016-06-27T01:36:58.810Z,100
2016-06-27T01:37:08.819Z,100
2016-06-27T01:37:18.820Z,100
2016-06-27T01:37:28.825Z,100
2016-06-27T01:37:38.843Z,100
2016-06-27T01:37:48.850Z,100
2016-06-27T01:37:58.832Z,100
2016-06-27T01:38:08.854Z,100
2016-06-27T01:38:18.861Z,100
2016-06-27T01:38:28.891Z,100
2016-06-27T01:38:38.854Z,100
2016-06-27T01:38:48.917Z,100
2016-06-27T01:38:57.674Z,100
2016-06-27T01:39:08.907Z,100
2016-06-27T01:39:18.888Z,100
2016-06-27T01:39:28.894Z,100
2016-06-27T01:39:38.942Z,100
2016-06-27T01:39:48.922Z,100
2016-06-27T01:39:58.931Z,100
2016-06-27T01:40:08.917Z,100
2016-06-27T01:40:18.931Z,100
2016-06-27T01:40:29.005Z,100
2016-06-27T01:40:37.783Z,100
2016-06-27T01:40:48.942Z,100
2016-06-27T01:40:58.945Z,100
2016-06-27T01:41:09.007Z,100
2016-06-27T01:41:18.976Z,100
2016-06-27T01:41:28.967Z,100
2016-06-27T01:41:38.993Z,100
2016-06-27T01:41:49.051Z,100
2016-06-27T01:41:57.811Z,100
2016-06-27T01:42:07.812Z,100
2016-06-27T01:42:18.993Z,100
2016-06-27T01:42:29.010Z,100
2016-06-27T01:42:39.010Z,100
2016-06-27T01:42:49.033Z,100
2016-06-27T01:42:59.023Z,100
2016-06-27T01:43:09.027Z,100
2016-06-27T01:43:19.031Z,100
2016-06-27T01:43:29.047Z,100
2016-06-27T01:43:39.052Z,100
2016-06-27T01:43:49.060Z,100
2016-06-27T01:43:59.084Z,100
2016-06-27T01:44:09.070Z,100
2016-06-27T01:44:19.069Z,100
2016-06-27T01:44:29.073Z,100
2016-06-27T01:44:39.102Z,100
2016-06-27T01:44:47.901Z,100
2016-06-27T01:44:59.113Z,100
2016-06-27T01:45:09.115Z,100
2016-06-27T01:45:19.245Z,100
2016-06-27T01:45:29.111Z,100
2016-06-27T01:45:39.143Z,100
2016-06-27T01:45:49.138Z,100
2016-06-27T01:45:59.141Z,100
2016-06-27T01:46:09.149Z,100
2016-06-27T01:46:19.147Z,100
2016-06-27T01:46:29.146Z,100
2016-06-27T01:46:37.973Z,100
2016-06-27T01:46:49.169Z,100
2016-06-27T01:46:59.216Z,100
2016-06-27T01:47:09.181Z,100
2016-06-27T01:47:19.207Z,100
2016-06-27T01:47:29.194Z,100
2016-06-27T01:47:39.221Z,100
2016-06-27T01:47:49.204Z,100
2016-06-27T01:47:59.227Z,100
2016-06-27T01:48:08.018Z,100
2016-06-27T01:48:19.230Z,100
2016-06-27T01:48:29.228Z,100
2016-06-27T01:48:39.229Z,100
2016-06-27T01:48:49.231Z,100
2016-06-27T01:48:59.294Z,100
2016-06-27T01:49:09.253Z,100
2016-06-27T01:49:19.259Z,100
2016-06-27T01:49:29.262Z,100
2016-06-27T01:49:39.273Z,100
2016-06-27T01:49:49.272Z,100
2016-06-27T01:49:59.283Z,100
2016-06-27T01:50:09.309Z,100
2016-06-27T01:50:19.315Z,100
2016-06-27T01:50:28.101Z,100
2016-06-27T01:50:39.310Z,100
2016-06-27T01:50:49.322Z,100
2016-06-27T01:50:59.326Z,100
2016-06-27T01:51:09.328Z,100
2016-06-27T01:51:19.329Z,100
2016-06-27T01:51:29.361Z,100
2016-06-27T01:51:39.338Z,100
2016-06-27T01:51:49.360Z,100
2016-06-27T01:51:59.349Z,100
2016-06-27T01:52:09.471Z,100
2016-06-27T01:52:19.368Z,100
2016-06-27T01:52:29.364Z,100
2016-06-27T01:52:39.377Z,100
2016-06-27T01:52:49.414Z,100
2016-06-27T01:52:59.416Z,100
2016-06-27T01:53:09.402Z,100
2016-06-27T01:53:19.427Z,100
2016-06-27T01:53:29.414Z,100
2016-06-27T01:53:39.424Z,100
2016-06-27T01:53:49.435Z,100
2016-06-27T01:53:58.231Z,100
2016-06-27T01:54:09.447Z,100
2016-06-27T01:54:19.433Z,100
2016-06-27T01:54:28.251Z,100
2016-06-27T01:54:39.470Z,100
2016-06-27T01:54:49.504Z,100
2016-06-27T01:54:59.465Z,100
2016-06-27T01:55:09.476Z,100
2016-06-27T01:55:18.291Z,100
2016-06-27T01:55:29.494Z,100
2016-06-27T01:55:39.488Z,100
2016-06-27T01:55:49.506Z,100
2016-06-27T01:55:59.513Z,100
2016-06-27T01:56:09.562Z,100
2016-06-27T01:56:19.519Z,100
2016-06-27T01:56:29.532Z,100
2016-06-27T01:56:39.527Z,100
2016-06-27T01:56:48.346Z,100
2016-06-27T01:56:59.552Z,100
2016-06-27T01:57:09.559Z,100
2016-06-27T01:57:18.357Z,100
2016-06-27T01:57:29.603Z,100
2016-06-27T01:57:39.575Z,100
2016-06-27T01:57:49.592Z,100
2016-06-27T01:57:59.566Z,100
2016-06-27T01:58:08.409Z,100
2016-06-27T01:58:19.595Z,100
2016-06-27T01:58:29.588Z,100
2016-06-27T01:58:39.596Z,100
2016-06-27T01:58:49.620Z,100
2016-06-27T01:58:59.615Z,100
2016-06-27T01:59:09.650Z,100
2016-06-27T01:59:19.627Z,100
2016-06-27T01:59:29.628Z,100
2016-06-27T01:59:39.655Z,100
2016-06-27T01:59:49.656Z,100
2016-06-27T01:59:59.658Z,100
2016-06-27T02:00:09.645Z,100
2016-06-27T02:00:19.653Z,100
2016-06-27T02:00:29.663Z,100
2016-06-27T02:00:38.471Z,100
2016-06-27T02:00:48.482Z,100
2016-06-27T02:00:59.695Z,100
2016-06-27T02:01:09.693Z,100
2016-06-27T02:01:19.790Z,100
2016-06-27T02:01:29.709Z,100
2016-06-27T02:01:39.714Z,100
2016-06-27T02:01:49.766Z,100
2016-06-27T02:01:59.814Z,100
2016-06-27T02:02:09.725Z,100
2016-06-27T02:02:19.729Z,100
2016-06-27T02:02:28.559Z,100
2016-06-27T02:02:39.754Z,100
2016-06-27T02:02:48.554Z,100
2016-06-27T02:02:59.757Z,100
2016-06-27T02:03:09.776Z,100
2016-06-27T02:03:18.590Z,100
2016-06-27T02:03:29.766Z,100
2016-06-27T02:03:39.803Z,100
2016-06-27T02:03:49.799Z,100
2016-06-27T02:03:58.598Z,100
2016-06-27T02:04:09.806Z,100
2016-06-27T02:04:18.620Z,100
2016-06-27T02:04:29.828Z,100
2016-06-27T02:04:39.869Z,100
2016-06-27T02:04:49.834Z,100
2016-06-27T02:04:59.837Z,100
2016-06-27T02:05:09.838Z,100
2016-06-27T02:05:19.870Z,100
2016-06-27T02:05:29.857Z,100
2016-06-27T02:05:39.861Z,100
2016-06-27T02:05:49.862Z,100
2016-06-27T02:05:59.871Z,100
2016-06-27T02:06:09.874Z,100
2016-06-27T02:06:19.877Z,100
2016-06-27T02:06:29.915Z,100
2016-06-27T02:06:39.882Z,100
2016-06-27T02:06:49.894Z,100
2016-06-27T02:06:59.921Z,100
2016-06-27T02:07:09.915Z,100
2016-06-27T02:07:19.915Z,100
2016-06-27T02:07:28.735Z,100
2016-06-27T02:07:39.945Z,100
2016-06-27T02:07:49.932Z,100
2016-06-27T02:07:59.935Z,100
2016-06-27T02:08:09.955Z,100
2016-06-27T02:08:19.957Z,100
2016-06-27T02:08:29.961Z,100
2016-06-27T02:08:39.993Z,100
2016-06-27T02:08:49.972Z,100
2016-06-27T02:08:59.989Z,100
2016-06-27T02:09:09.997Z,100
2016-06-27T02:09:20.002Z,100
2016-06-27T02:09:28.796Z,100
2016-06-27T02:09:39.997Z,100
2016-06-27T02:09:50.010Z,100
2016-06-27T02:10:00.013Z,100
2016-06-27T02:10:10.017Z,100
2016-06-27T02:10:20.069Z,100
2016-06-27T02:10:30.043Z,100
2016-06-27T02:10:40.043Z,100
2016-06-27T02:10:50.039Z,100
2016-06-27T02:11:00.054Z,100
2016-06-27T02:11:10.074Z,100
2016-06-27T02:11:20.067Z,100
2016-06-27T02:11:30.069Z,100
2016-06-27T02:11:40.080Z,100
2016-06-27T02:11:50.106Z,100
2016-06-27T02:12:00.094Z,100
2016-06-27T02:12:10.090Z,100
2016-06-27T02:12:20.099Z,100
2016-06-27T02:12:30.126Z,100
2016-06-27T02:12:40.125Z,100
2016-06-27T02:12:50.121Z,100
2016-06-27T02:13:00.131Z,100
2016-06-27T02:13:10.135Z,100
2016-06-27T02:13:20.153Z,100
2016-06-27T02:13:30.139Z,100
2016-06-27T02:13:40.152Z,100
2016-06-27T02:13:50.164Z,100
2016-06-27T02:14:00.171Z,100
2016-06-27T02:14:10.175Z,100
2016-06-27T02:14:20.183Z,100
2016-06-27T02:14:30.194Z,100
2016-06-27T02:14:39.016Z,100
2016-06-27T02:14:50.237Z,100
2016-06-27T02:15:00.207Z,100
2016-06-27T02:15:09.056Z,100
2016-06-27T02:15:20.234Z,100
2016-06-27T02:15:30.227Z,100
2016-06-27T02:15:39.026Z,100
2016-06-27T02:15:50.230Z,100
2016-06-27T02:16:00.244Z,100